createdAt,value
2023-02-14T00:01:11.154Z,3.70
2023-02-14T00:03:39.750Z,3.60
2023-02-14T00:06:09.009Z,3.60
2023-02-14T00:08:36.752Z,3.60
2023-02-14T00:11:05.481Z,3.60
2023-02-14T00:13:32.871Z,3.60
2023-02-14T00:16:04.013Z,3.50
2023-02-14T00:18:49.790Z,3.50
2023-02-14T00:21:16.970Z,3.50
2023-02-14T00:23:44.083Z,3.50
2023-02-14T00:26:15.451Z,3.40
2023-02-14T00:28:51.830Z,3.30
2023-02-14T00:31:19.067Z,3.20
2023-02-14T00:33:46.858Z,3.20
2023-02-14T00:36:14.396Z,3.20
2023-02-14T00:38:41.448Z,3.20
2023-02-14T00:41:08.910Z,3.10
2023-02-14T00:43:35.914Z,3.20
2023-02-14T00:46:03.012Z,3.20
2023-02-14T00:48:29.964Z,3.10
2023-02-14T00:50:57.201Z,3.10
2023-02-14T00:53:24.286Z,3.10
2023-02-14T00:55:51.473Z,3.00
2023-02-14T00:58:19.198Z,3.00
2023-02-14T01:00:47.765Z,3.00
2023-02-14T01:03:14.775Z,3.00
2023-02-14T01:05:42.083Z,3.00
2023-02-14T01:08:10.401Z,3.00
2023-02-14T01:10:40.103Z,2.90
2023-02-14T01:13:07.472Z,2.90
2023-02-14T01:15:46.103Z,2.90
2023-02-14T01:18:16.003Z,2.90
2023-02-14T01:20:43.122Z,2.90
2023-02-14T01:23:10.485Z,2.90
2023-02-14T01:25:38.404Z,2.80
2023-02-14T01:28:06.707Z,2.70
2023-02-14T01:30:33.777Z,2.70
2023-02-14T01:33:00.746Z,2.70
2023-02-14T01:35:27.739Z,2.60
2023-02-14T01:37:55.011Z,2.70
2023-02-14T01:40:22.070Z,2.60
2023-02-14T01:42:49.095Z,2.60
2023-02-14T01:45:26.712Z,2.60
2023-02-14T01:47:56.207Z,2.60
2023-02-14T01:50:31.494Z,2.60
2023-02-14T01:53:06.082Z,2.60
2023-02-14T01:55:41.415Z,2.50
2023-02-14T01:58:19.669Z,2.50
2023-02-14T02:00:58.173Z,2.50
2023-02-14T02:03:32.550Z,2.50
2023-02-14T02:06:12.966Z,2.40
2023-02-14T02:08:54.260Z,2.40
2023-02-14T02:11:21.865Z,2.40
2023-02-14T02:13:48.963Z,2.30
2023-02-14T02:16:41.172Z,2.30
2023-02-14T02:19:30.942Z,2.30
2023-02-14T02:22:49.227Z,2.20
2023-02-14T02:26:03.688Z,2.10
2023-02-14T02:29:03.912Z,2.10
2023-02-14T02:31:45.724Z,2.10
2023-02-14T02:34:31.694Z,2.00
2023-02-14T02:37:43.029Z,2.00
2023-02-14T02:40:23.699Z,2.00
2023-02-14T02:43:25.953Z,2.00
2023-02-14T02:46:35.682Z,2.00
2023-02-14T02:49:02.720Z,2.00
2023-02-14T02:52:27.059Z,2.00
2023-02-14T02:55:02.220Z,2.00
2023-02-14T02:57:35.959Z,2.00
2023-02-14T03:00:06.080Z,2.00
2023-02-14T03:03:02.974Z,2.00
2023-02-14T03:05:34.333Z,2.00
2023-02-14T03:08:01.356Z,2.00
2023-02-14T03:10:35.405Z,1.90
2023-02-14T03:13:22.882Z,1.90
2023-02-14T03:16:20.593Z,1.90
2023-02-14T03:18:53.717Z,1.90
2023-02-14T03:21:31.624Z,1.90
2023-02-14T03:24:25.268Z,1.90
2023-02-14T03:27:03.023Z,1.90
2023-02-14T03:29:52.366Z,1.80
2023-02-14T03:32:40.220Z,1.80
2023-02-14T03:35:31.646Z,1.70
2023-02-14T03:38:13.410Z,1.70
2023-02-14T03:40:46.852Z,1.70
2023-02-14T03:43:44.452Z,1.70
2023-02-14T03:46:18.034Z,1.70
2023-02-14T03:48:47.293Z,1.70
2023-02-14T03:51:16.470Z,1.70
2023-02-14T03:53:48.459Z,1.70
2023-02-14T03:56:22.650Z,1.70
2023-02-14T03:58:53.362Z,1.60
2023-02-14T04:01:23.347Z,1.60
2023-02-14T04:03:53.069Z,1.60
2023-02-14T04:06:21.642Z,1.60
2023-02-14T04:08:48.891Z,1.60
2023-02-14T04:11:16.099Z,1.70
2023-02-14T04:13:43.281Z,1.60
2023-02-14T04:16:10.415Z,1.70
2023-02-14T04:18:56.317Z,1.60
2023-02-14T04:21:23.435Z,1.60
2023-02-14T04:23:50.526Z,1.50
2023-02-14T04:26:17.691Z,1.50
2023-02-14T04:28:44.740Z,1.50
2023-02-14T04:31:11.826Z,1.50
2023-02-14T04:33:39.400Z,1.60
2023-02-14T04:36:07.054Z,1.60
2023-02-14T04:38:34.370Z,1.60
2023-02-14T04:41:01.994Z,1.70
2023-02-14T04:43:29.173Z,1.70
2023-02-14T04:45:56.323Z,1.70
2023-02-14T04:48:23.630Z,1.70
2023-02-14T04:50:55.255Z,1.70
2023-02-14T04:53:22.653Z,1.80
2023-02-14T04:55:50.317Z,1.70
2023-02-14T04:58:17.770Z,1.80
2023-02-14T05:00:45.545Z,1.80
2023-02-14T05:03:12.816Z,1.90
2023-02-14T05:05:41.173Z,1.90
2023-02-14T05:08:08.264Z,1.90
2023-02-14T05:10:35.426Z,1.90
2023-02-14T05:13:02.796Z,1.80
2023-02-14T05:15:29.821Z,1.90
2023-02-14T05:18:01.643Z,1.90
2023-02-14T05:20:29.178Z,1.90
2023-02-14T05:22:57.451Z,1.80
2023-02-14T05:25:24.434Z,1.90
2023-02-14T05:27:51.558Z,1.90
2023-02-14T05:30:18.965Z,2.00
2023-02-14T05:32:46.060Z,1.90
2023-02-14T05:35:13.190Z,1.90
2023-02-14T05:37:40.207Z,1.90
2023-02-14T05:40:08.386Z,1.90
2023-02-14T05:42:35.526Z,1.90
2023-02-14T05:45:02.665Z,1.90
2023-02-14T05:47:32.888Z,1.80
2023-02-14T05:50:00.135Z,1.80
2023-02-14T05:52:27.417Z,1.80
2023-02-14T05:54:54.562Z,1.80
2023-02-14T05:57:31.310Z,1.80
2023-02-14T06:00:01.179Z,1.70
2023-02-14T06:02:28.468Z,1.70
2023-02-14T06:04:55.481Z,1.70
2023-02-14T06:07:22.624Z,1.70
2023-02-14T06:09:49.778Z,1.70
2023-02-14T06:12:16.956Z,1.70
2023-02-14T06:14:45.366Z,1.70
2023-02-14T06:17:12.505Z,1.70
2023-02-14T06:19:45.581Z,1.70
2023-02-14T06:22:12.851Z,1.70
2023-02-14T06:24:40.423Z,1.70
2023-02-14T06:27:07.681Z,1.60
2023-02-14T06:29:35.212Z,1.60
2023-02-14T06:32:06.033Z,1.60
2023-02-14T06:34:37.295Z,1.60
2023-02-14T06:37:04.376Z,1.60
2023-02-14T06:39:40.220Z,1.60
2023-02-14T06:42:07.566Z,1.50
2023-02-14T06:44:40.960Z,1.50
2023-02-14T06:47:08.629Z,1.50
2023-02-14T06:49:41.310Z,1.60
2023-02-14T06:52:31.626Z,1.60
2023-02-14T06:55:13.875Z,1.60
2023-02-14T06:57:41.108Z,1.60
2023-02-14T07:00:10.248Z,1.60
2023-02-14T07:02:37.704Z,1.70
2023-02-14T07:05:05.217Z,1.70
2023-02-14T07:07:42.159Z,1.70
2023-02-14T07:10:09.657Z,1.60
2023-02-14T07:12:42.536Z,1.60
2023-02-14T07:15:23.976Z,1.60
2023-02-14T07:17:51.149Z,1.60
2023-02-14T07:20:19.026Z,1.60
2023-02-14T07:22:50.150Z,1.60
2023-02-14T07:25:17.419Z,1.60
2023-02-14T07:27:49.580Z,1.60
2023-02-14T07:30:26.919Z,1.60
2023-02-14T07:32:54.208Z,1.70
2023-02-14T07:35:21.264Z,1.80
2023-02-14T07:37:52.978Z,1.80
2023-02-14T07:40:20.369Z,1.80
2023-02-14T07:42:55.547Z,1.90
2023-02-14T07:45:26.176Z,2.00
2023-02-14T07:48:02.527Z,2.00
2023-02-14T07:50:33.030Z,2.00
2023-02-14T07:53:01.053Z,2.20
2023-02-14T07:55:29.225Z,2.30
2023-02-14T07:57:56.649Z,2.30
2023-02-14T08:00:26.096Z,2.30
2023-02-14T08:02:53.439Z,2.20
2023-02-14T08:05:20.584Z,2.30
2023-02-14T08:07:48.173Z,2.30
2023-02-14T08:10:18.490Z,2.40
2023-02-14T08:13:03.910Z,2.60
2023-02-14T08:15:53.677Z,2.60
2023-02-14T08:18:28.258Z,2.40
2023-02-14T08:20:55.430Z,2.60
2023-02-14T08:23:22.844Z,2.70
2023-02-14T08:25:54.889Z,2.70
2023-02-14T08:28:22.372Z,2.90
2023-02-14T08:30:50.610Z,3.10
2023-02-14T08:33:18.728Z,3.10
2023-02-14T08:35:46.347Z,3.10
2023-02-14T08:38:13.857Z,3.10
2023-02-14T08:40:41.669Z,3.30
2023-02-14T08:43:09.060Z,3.40
2023-02-14T08:45:36.812Z,3.40
2023-02-14T08:48:12.111Z,3.50
2023-02-14T08:50:40.215Z,3.50
2023-02-14T08:53:12.207Z,3.60
2023-02-14T08:55:40.236Z,3.60
2023-02-14T08:58:07.895Z,3.70
2023-02-14T09:00:35.714Z,3.80
2023-02-14T09:03:03.071Z,3.90
2023-02-14T09:05:30.357Z,3.90
2023-02-14T09:07:59.947Z,4.00
2023-02-14T09:10:30.320Z,4.20
2023-02-14T09:13:01.530Z,4.30
2023-02-14T09:15:28.723Z,4.50
2023-02-14T09:17:58.813Z,4.60
2023-02-14T09:20:37.146Z,4.70
2023-02-14T09:23:04.507Z,4.80
2023-02-14T09:25:39.033Z,5.00
2023-02-14T09:28:16.040Z,5.10
2023-02-14T09:30:47.903Z,5.20
2023-02-14T09:33:25.777Z,5.30
2023-02-14T09:35:53.981Z,5.40
2023-02-14T09:38:23.843Z,5.60
2023-02-14T09:40:51.164Z,5.70
2023-02-14T09:43:53.215Z,5.90
2023-02-14T09:46:21.534Z,6.00
2023-02-14T09:48:56.156Z,6.20
2023-02-14T09:51:29.509Z,6.30
2023-02-14T09:54:06.043Z,6.40
2023-02-14T09:56:59.286Z,6.60
2023-02-14T09:59:34.497Z,6.70
2023-02-14T10:02:38.421Z,6.80
2023-02-14T10:05:13.305Z,6.90
2023-02-14T10:08:03.138Z,7.00
2023-02-14T10:10:51.191Z,7.10
2023-02-14T10:13:33.532Z,7.20
2023-02-14T10:16:06.020Z,7.40
2023-02-14T10:18:42.859Z,7.50
2023-02-14T10:21:21.083Z,7.60
2023-02-14T10:23:56.374Z,7.80
2023-02-14T10:26:33.074Z,7.80
2023-02-14T10:29:00.193Z,8.00
2023-02-14T10:31:41.677Z,8.10
2023-02-14T10:34:22.862Z,8.30
2023-02-14T10:36:53.127Z,8.40
2023-02-14T10:39:37.931Z,8.50
2023-02-14T10:42:31.657Z,8.50
2023-02-14T10:45:31.213Z,8.60
2023-02-14T10:48:16.786Z,8.80
2023-02-14T10:51:07.940Z,8.80
2023-02-14T10:53:53.694Z,8.90
2023-02-14T10:56:27.025Z,9.00
2023-02-14T10:58:56.843Z,9.10
2023-02-14T11:01:25.049Z,9.10
2023-02-14T11:04:04.343Z,9.20
2023-02-14T11:06:31.974Z,9.30
2023-02-14T11:08:59.688Z,9.40
2023-02-14T11:11:33.980Z,9.50
2023-02-14T11:16:51.849Z,9.60
2023-02-14T11:19:22.920Z,9.70
2023-02-14T11:21:51.868Z,9.80
2023-02-14T11:24:30.990Z,10.00
2023-02-14T11:27:18.903Z,10.10
2023-02-14T11:29:53.134Z,10.10
2023-02-14T11:32:29.267Z,10.20
2023-02-14T11:35:14.010Z,10.30
2023-02-14T11:37:50.641Z,10.40
2023-02-14T11:40:31.778Z,10.50
2023-02-14T11:43:19.387Z,10.50
2023-02-14T11:45:49.426Z,10.60
2023-02-14T11:48:34.899Z,10.70
2023-02-14T11:51:09.366Z,10.60
2023-02-14T11:53:49.534Z,10.70
2023-02-14T11:56:22.279Z,10.70
2023-02-14T11:59:00.216Z,10.90
2023-02-14T12:01:37.041Z,11.00
2023-02-14T12:04:14.336Z,11.00
2023-02-14T12:06:45.977Z,11.00
2023-02-14T12:09:29.724Z,11.10
2023-02-14T12:12:04.801Z,11.20
2023-02-14T12:14:36.116Z,11.30
2023-02-14T12:17:10.040Z,11.50
2023-02-14T12:19:46.840Z,11.40
2023-02-14T12:22:27.413Z,11.50
2023-02-14T12:25:14.790Z,11.60
2023-02-14T12:27:51.973Z,11.70
2023-02-14T12:30:25.421Z,11.90
2023-02-14T12:32:59.152Z,11.90
2023-02-14T12:35:48.476Z,11.80
2023-02-14T12:38:53.737Z,11.80
2023-02-14T12:41:55.240Z,11.90
2023-02-14T12:44:25.807Z,12.00
2023-02-14T12:46:59.320Z,11.90
2023-02-14T12:49:52.610Z,12.00
2023-02-14T12:52:50.247Z,12.10
2023-02-14T12:55:42.615Z,12.40
2023-02-14T12:58:20.169Z,12.50
2023-02-14T13:01:08.438Z,12.40
2023-02-14T13:04:04.458Z,12.40
2023-02-14T13:06:35.582Z,12.40
2023-02-14T13:09:45.176Z,12.50
2023-02-14T13:12:39.289Z,12.50
2023-02-14T13:15:12.453Z,12.50
2023-02-14T13:17:53.544Z,12.50
2023-02-14T13:20:33.103Z,12.50
2023-02-14T13:23:10.393Z,12.40
2023-02-14T13:25:51.999Z,12.40
2023-02-14T13:28:22.940Z,12.40
2023-02-14T13:30:52.038Z,12.40
2023-02-14T13:33:28.477Z,12.60
2023-02-14T13:36:02.118Z,12.70
2023-02-14T13:38:32.065Z,12.60
2023-02-14T13:41:02.071Z,12.80
2023-02-14T13:44:00.268Z,12.90
2023-02-14T13:46:36.665Z,12.80
2023-02-14T13:49:31.661Z,12.90
2023-02-14T13:52:04.785Z,12.70
2023-02-14T13:54:48.432Z,12.70
2023-02-14T13:57:36.632Z,12.80
2023-02-14T14:00:21.614Z,12.90
2023-02-14T14:02:50.521Z,12.90
2023-02-14T14:05:33.061Z,12.80
2023-02-14T14:08:23.412Z,13.00
2023-02-14T14:11:01.741Z,13.00
2023-02-14T14:13:41.081Z,13.10
2023-02-14T14:16:35.485Z,13.00
2023-02-14T14:19:21.499Z,13.00
2023-02-14T14:22:02.821Z,13.00
2023-02-14T14:24:40.904Z,13.00
2023-02-14T14:27:18.443Z,12.90
2023-02-14T14:29:51.518Z,13.00
2023-02-14T14:32:23.470Z,13.00
2023-02-14T14:34:52.416Z,13.00
2023-02-14T14:37:29.814Z,13.10
2023-02-14T14:40:00.457Z,13.00
2023-02-14T14:42:40.687Z,13.00
2023-02-14T14:45:28.813Z,13.10
2023-02-14T14:47:58.359Z,13.10
2023-02-14T14:50:31.561Z,13.10
2023-02-14T14:53:05.755Z,13.00
2023-02-14T14:55:39.681Z,13.00
2023-02-14T14:58:28.527Z,13.00
2023-02-14T15:00:55.846Z,13.10
2023-02-14T15:03:28.403Z,13.00
2023-02-14T15:06:22.754Z,12.90
2023-02-14T15:08:51.786Z,12.90
2023-02-14T15:11:45.004Z,12.90
2023-02-14T15:14:22.394Z,12.80
2023-02-14T15:16:57.920Z,12.70
2023-02-14T15:19:47.435Z,12.70
2023-02-14T15:22:27.052Z,12.50
2023-02-14T15:24:58.746Z,12.40
2023-02-14T15:27:28.502Z,12.40
2023-02-14T15:30:09.773Z,12.40
2023-02-14T15:32:38.322Z,12.30
2023-02-14T15:35:07.729Z,12.30
2023-02-14T15:37:35.548Z,12.20
2023-02-14T15:40:03.192Z,12.20
2023-02-14T15:42:40.328Z,12.10
2023-02-14T15:45:28.128Z,12.10
2023-02-14T15:48:04.182Z,12.00
2023-02-14T15:50:34.510Z,12.00
2023-02-14T15:53:08.329Z,12.00
2023-02-14T15:55:36.989Z,11.90
2023-02-14T15:58:12.692Z,11.80
2023-02-14T16:00:43.563Z,11.80
2023-02-14T16:03:19.434Z,11.80
2023-02-14T16:05:47.903Z,11.70
2023-02-14T16:08:35.884Z,11.70
2023-02-14T16:11:05.228Z,11.60
2023-02-14T16:13:34.992Z,11.60
2023-02-14T16:16:05.496Z,11.50
2023-02-14T16:18:53.257Z,11.50
2023-02-14T16:21:28.187Z,11.40
2023-02-14T16:24:08.035Z,11.40
2023-02-14T16:26:39.388Z,11.30
2023-02-14T16:29:08.495Z,11.20
2023-02-14T16:31:38.680Z,11.10
2023-02-14T16:34:05.916Z,11.10
2023-02-14T16:36:34.247Z,11.00
2023-02-14T16:39:05.695Z,10.90
2023-02-14T16:41:35.019Z,10.80
2023-02-14T16:44:02.192Z,10.80
2023-02-14T16:46:31.869Z,10.70
2023-02-14T16:48:59.438Z,10.70
2023-02-14T16:51:29.704Z,10.60
2023-02-14T16:54:05.441Z,10.60
2023-02-14T16:56:59.046Z,10.50
2023-02-14T16:59:26.333Z,10.40
2023-02-14T17:01:54.964Z,10.30
2023-02-14T17:04:22.043Z,10.20
2023-02-14T17:06:54.330Z,10.10
2023-02-14T17:09:27.584Z,10.00
2023-02-14T17:11:58.851Z,9.90
2023-02-14T17:14:30.250Z,9.90
2023-02-14T17:16:58.577Z,9.80
2023-02-14T17:19:25.922Z,9.70
2023-02-14T17:22:00.390Z,9.70
2023-02-14T17:24:27.469Z,9.60
2023-02-14T17:26:54.757Z,9.50
2023-02-14T17:30:26.381Z,9.40
2023-02-14T17:32:53.964Z,9.40
2023-02-14T17:35:21.435Z,9.30
2023-02-14T17:37:51.540Z,9.20
2023-02-14T17:40:19.841Z,9.00
2023-02-14T17:42:47.212Z,8.90
2023-02-14T17:45:18.566Z,8.80
2023-02-14T17:47:45.979Z,8.80
2023-02-14T17:50:16.121Z,8.80
2023-02-14T17:52:45.227Z,8.80
2023-02-14T17:55:14.067Z,8.80
2023-02-14T17:57:45.411Z,8.70
2023-02-14T18:00:18.519Z,8.60
2023-02-14T18:02:45.864Z,8.50
2023-02-14T18:05:13.167Z,8.40
2023-02-14T18:07:40.478Z,8.40
2023-02-14T18:10:07.926Z,8.30
2023-02-14T18:12:35.109Z,8.20
2023-02-14T18:15:02.402Z,8.10
2023-02-14T18:17:29.615Z,8.10
2023-02-14T18:19:56.898Z,8.00
2023-02-14T18:22:24.955Z,7.90
2023-02-14T18:24:52.413Z,7.80
2023-02-14T18:27:22.044Z,7.80
2023-02-14T18:29:49.563Z,7.80
2023-02-14T18:32:16.946Z,7.70
2023-02-14T18:34:46.658Z,7.70
2023-02-14T18:37:16.937Z,7.60
2023-02-14T18:39:44.567Z,7.50
2023-02-14T18:42:14.260Z,7.40
2023-02-14T18:44:42.126Z,7.30
2023-02-14T18:47:09.456Z,7.30
2023-02-14T18:49:38.712Z,7.20
2023-02-14T18:52:06.991Z,7.20
2023-02-14T18:54:35.485Z,7.20
2023-02-14T18:57:04.069Z,7.20
2023-02-14T18:59:31.357Z,7.20
2023-02-14T19:01:58.928Z,7.10
2023-02-14T19:04:26.954Z,7.00
2023-02-14T19:06:54.156Z,7.00
2023-02-14T19:09:45.533Z,6.90
2023-02-14T19:12:16.060Z,6.80
2023-02-14T19:14:43.511Z,6.80
2023-02-14T19:17:14.037Z,6.80
2023-02-14T19:19:41.561Z,6.80
2023-02-14T19:22:09.144Z,6.80
2023-02-14T19:24:36.472Z,6.70
2023-02-14T19:27:03.955Z,6.70
2023-02-14T19:29:33.434Z,6.70
2023-02-14T19:32:01.262Z,6.70
2023-02-14T19:34:30.385Z,6.70
2023-02-14T19:37:00.205Z,6.60
2023-02-14T19:39:31.086Z,6.60
2023-02-14T19:42:00.198Z,6.60
2023-02-14T19:44:30.419Z,6.50
2023-02-14T19:47:04.239Z,6.50
2023-02-14T19:49:36.188Z,6.50
2023-02-14T19:52:06.222Z,6.30
2023-02-14T19:54:39.775Z,6.30
2023-02-14T19:57:09.587Z,6.30
2023-02-14T19:59:37.027Z,6.20
2023-02-14T20:02:04.824Z,6.20
2023-02-14T20:04:33.046Z,6.20
2023-02-14T20:07:01.034Z,6.30
2023-02-14T20:09:29.330Z,6.40
2023-02-14T20:11:58.096Z,6.40
2023-02-14T20:14:38.421Z,6.40
2023-02-14T20:17:15.173Z,6.20
2023-02-14T20:19:42.744Z,6.10
2023-02-14T20:22:11.394Z,6.00
2023-02-14T20:24:40.379Z,6.00
2023-02-14T20:27:10.411Z,5.90
2023-02-14T20:29:43.998Z,5.80
2023-02-14T20:32:15.891Z,5.70
2023-02-14T20:34:44.436Z,5.70
2023-02-14T20:37:12.261Z,5.70
2023-02-14T20:39:40.184Z,5.60
2023-02-14T20:42:08.772Z,5.50
2023-02-14T20:44:36.395Z,5.50
2023-02-14T20:47:04.214Z,5.50
2023-02-14T20:49:33.665Z,5.50
2023-02-14T20:52:04.931Z,5.50
2023-02-14T20:54:38.898Z,5.50
2023-02-14T20:57:06.550Z,5.40
2023-02-14T20:59:34.152Z,5.30
2023-02-14T21:02:02.093Z,5.30
2023-02-14T21:04:33.992Z,5.20
2023-02-14T21:07:07.614Z,5.10
2023-02-14T21:09:36.988Z,5.00
2023-02-14T21:12:12.552Z,5.00
2023-02-14T21:14:41.340Z,5.10
2023-02-14T21:17:08.688Z,5.20
2023-02-14T21:19:38.184Z,5.10
2023-02-14T21:22:09.298Z,5.10
2023-02-14T21:24:43.169Z,5.00
2023-02-14T21:27:14.123Z,4.80
2023-02-14T21:29:41.717Z,4.90
2023-02-14T21:32:09.461Z,4.90
2023-02-14T21:34:44.743Z,4.90
2023-02-14T21:37:13.232Z,4.70
2023-02-14T21:39:46.558Z,4.60
2023-02-14T21:42:17.619Z,4.60
2023-02-14T21:45:05.026Z,4.60
2023-02-14T21:47:36.282Z,4.60
2023-02-14T21:50:22.736Z,4.60
2023-02-14T21:52:53.919Z,4.60
2023-02-14T21:55:21.710Z,4.70
2023-02-14T21:57:49.028Z,4.60
2023-02-14T22:00:17.501Z,4.50
2023-02-14T22:02:44.824Z,4.50
2023-02-14T22:05:12.459Z,4.40
2023-02-14T22:07:41.041Z,4.40
2023-02-14T22:10:08.429Z,4.40
2023-02-14T22:12:35.606Z,4.40
2023-02-14T22:15:04.445Z,4.40
2023-02-14T22:17:33.247Z,4.20
2023-02-14T22:20:00.253Z,4.10
2023-02-14T22:22:27.422Z,4.10
2023-02-14T22:24:54.521Z,3.90
2023-02-14T22:27:21.646Z,4.00
2023-02-14T22:29:49.751Z,3.90
2023-02-14T22:32:19.337Z,3.90
2023-02-14T22:34:47.150Z,3.90
2023-02-14T22:37:22.664Z,3.90
2023-02-14T22:39:55.514Z,3.90
2023-02-14T22:42:27.929Z,3.90
2023-02-14T22:44:55.852Z,3.90
2023-02-14T22:47:22.937Z,3.90
2023-02-14T22:50:01.133Z,3.90
2023-02-14T22:52:32.315Z,3.90
2023-02-14T22:55:02.575Z,3.90
2023-02-14T22:57:31.722Z,3.90
2023-02-14T22:59:58.880Z,3.90
2023-02-14T23:02:31.870Z,3.80
2023-02-14T23:04:59.029Z,3.80
2023-02-14T23:07:26.147Z,3.80
2023-02-14T23:09:58.145Z,3.80
2023-02-14T23:12:44.042Z,3.70
2023-02-14T23:15:29.871Z,3.70
2023-02-14T23:18:15.489Z,3.60
2023-02-14T23:21:01.256Z,3.50
2023-02-14T23:23:33.373Z,3.50
2023-02-14T23:26:01.248Z,3.50
2023-02-14T23:28:28.862Z,3.50
2023-02-14T23:31:01.252Z,3.50
2023-02-14T23:33:28.514Z,3.50
2023-02-14T23:35:55.656Z,3.40
2023-02-14T23:38:23.080Z,3.40
2023-02-14T23:41:08.907Z,3.40
2023-02-14T23:43:36.161Z,3.40
2023-02-14T23:46:04.615Z,3.30
2023-02-14T23:48:31.710Z,3.30
2023-02-14T23:51:01.839Z,3.30
2023-02-14T23:53:28.984Z,3.20
2023-02-14T23:56:01.788Z,3.20
2023-02-14T23:58:29.139Z,3.20
